Terminal Aerodrome Forecast
Issued by NWS

Home | Current Version | Previous Version | Text Only | Print | Product List | Glossary On
Versions: 1 2 3 4 5 6 7 8 9 10 11 12 13 14 15 16 17 18 19 20 21 22 23 24 25 26 27
000
FTUS45 KBOU 170959 AAA
TAFAPA
TAF AMD
KAPA 170959Z 1710/1806 17009KT P6SM FEW140 SCT220
     FM171400 VRB05KT P6SM FEW100 SCT220
     FM172000 05007KT P6SM FEW140 SCT220
     FM180300 20010KT P6SM FEW140 SCT220=

USA.gov is the U.S. government's official web portal to all federal, state and local government web resources and services.